Oceanic Odyssey — C6OZ3 — position and weather

sailwx.info

Track history (hours):
 
Tides and Currents Weather Stations Pressure Air Temp Water Temp Dewpoint Dewpoint Depression Visibility Wind Speed Wind Dir Waves Ship Positions

Oceanic Odyssey

Last reported at 2015-Jul-30 21:00 UTC. Time now 2015-Sep-01 12:13 UTC.
Position N 58°00' W 154°30'.
Warning: this ship's position is 32 days out of date.

Length 103 m; draft 4.4 m.

Type: Passenger vessel. MMSI: 309913000.

Wind from 140 at 5 knots

Barometer 1019.0 mb
Air temperature 18.0 ° C
Visibility: greater than 5.4 NM
Water temperature 11.0 ° C

Date/timePositionNaut miles runAvg speedWind from/ knotsBaromVisibWave heightAir tempDewpointWater temp
2015-Jul-30 21:00N 58°00' W 154°30'   140 / 51019.0 5.4 18.0 11.0
2015-Jul-27 17:30N 58°16' W 136°22'7 2.9
2015-Jul-27 15:06N 58°18' W 136°10'610.0
2015-Jul-27 14:33N 58°20' W 135°59'1010.2
2015-Jul-27 13:32N 58°17' W 135°40'26 5.9
2015-Jul-27 09:11N 58°23' W 134°53'2210.7
2015-Jul-27 07:07N 58°11' W 134°17'5 9.5
2015-Jul-27 06:33N 58°09' W 134°08'  
2015-Jul-21 20:14N 51°10' W 127°51'812.4
2015-Jul-21 19:33N 51°02' W 127°49'1312.9
2015-Jul-21 18:33N 50°52' W 127°35'1413.5
2015-Jul-21 17:33N 50°47' W 127°15'8111.6
2015-Jul-21 10:33N 50°10' W 125°22'1212.4
2015-Jul-21 09:33N 49°59' W 125°12'1010.1
2015-Jul-21 08:33N 49°52' W 125°01'1312.4
2015-Jul-21 07:32N 49°43' W 124°47'1212.1
2015-Jul-21 06:33N 49°35' W 124°34'1211.6
2015-Jul-21 05:32N 49°26' W 124°22'1212.4
2015-Jul-21 04:33N 49°23' W 124°04'1312.9
2015-Jul-21 03:33N 49°22' W 123°44'1313.5
2015-Jul-21 02:33N 49°19' W 123°24'1211.6
2015-Jul-21 01:33N 49°18' W 123°06'1 0.5
2015-Jul-21 00:30N 49°17' W 123°07'0 0.0
2015-Jul-20 23:30N 49°17' W 123°07'0 0.0
2015-Jul-20 22:33N 49°17' W 123°07'0 0.0
2015-Jul-20 21:34N 49°17' W 123°07'  
Track history (hours):
 
Tides and Currents Weather Stations Pressure Air Temp Water Temp Dewpoint Dewpoint Depression Visibility Wind Speed Wind Dir Waves Ship Positions

Oceanic Odyssey

Last reported at 2015-Jul-30 21:00 UTC. Time now 2015-Sep-01 12:13 UTC.
Position N 58°00' W 154°30'.
Warning: this ship's position is 32 days out of date.

Length 103 m; draft 4.4 m.

Type: Passenger vessel. MMSI: 309913000.

Wind from 140 at 5 knots

Barometer 1019.0 mb
Air temperature 18.0 ° C
Visibility: greater than 5.4 NM
Water temperature 11.0 ° C

Date/timePositionNaut miles runAvg speedWind from/ knotsBaromVisibWave heightAir tempDewpointWater temp
2015-Jul-30 21:00N 58°00' W 154°30'   140 / 51019.0 5.4 18.0 11.0
2015-Jul-27 17:30N 58°16' W 136°22'7 2.9
2015-Jul-27 15:06N 58°18' W 136°10'610.0
2015-Jul-27 14:33N 58°20' W 135°59'1010.2
2015-Jul-27 13:32N 58°17' W 135°40'26 5.9
2015-Jul-27 09:11N 58°23' W 134°53'2210.7
2015-Jul-27 07:07N 58°11' W 134°17'5 9.5
2015-Jul-27 06:33N 58°09' W 134°08'  
2015-Jul-21 20:14N 51°10' W 127°51'812.4
2015-Jul-21 19:33N 51°02' W 127°49'1312.9
2015-Jul-21 18:33N 50°52' W 127°35'1413.5
2015-Jul-21 17:33N 50°47' W 127°15'8111.6
2015-Jul-21 10:33N 50°10' W 125°22'1212.4
2015-Jul-21 09:33N 49°59' W 125°12'1010.1
2015-Jul-21 08:33N 49°52' W 125°01'1312.4
2015-Jul-21 07:32N 49°43' W 124°47'1212.1
2015-Jul-21 06:33N 49°35' W 124°34'1211.6
2015-Jul-21 05:32N 49°26' W 124°22'1212.4
2015-Jul-21 04:33N 49°23' W 124°04'1312.9
2015-Jul-21 03:33N 49°22' W 123°44'1313.5
2015-Jul-21 02:33N 49°19' W 123°24'1211.6
2015-Jul-21 01:33N 49°18' W 123°06'1 0.5
2015-Jul-21 00:30N 49°17' W 123°07'0 0.0
2015-Jul-20 23:30N 49°17' W 123°07'0 0.0
2015-Jul-20 22:33N 49°17' W 123°07'0 0.0
2015-Jul-20 21:34N 49°17' W 123°07'  

Dump ship's entire track history